createdAt,value
2023-06-10T00:00:02.579Z,9.70
2023-06-10T00:02:29.202Z,7.97
2023-06-10T00:04:56.516Z,8.13
2023-06-10T00:07:23.001Z,9.65
2023-06-10T00:09:49.464Z,7.07
2023-06-10T00:12:17.903Z,8.85
2023-06-10T00:14:44.341Z,9.45
2023-06-10T00:17:10.983Z,6.45
2023-06-10T00:19:39.875Z,12.55
2023-06-10T00:22:06.460Z,6.18
2023-06-10T00:24:32.956Z,6.90
2023-06-10T00:26:59.395Z,9.15
2023-06-10T00:29:25.996Z,8.43
2023-06-10T00:31:54.781Z,7.15
2023-06-10T00:34:21.972Z,6.53
2023-06-10T00:36:48.390Z,7.00
2023-06-10T00:39:14.826Z,9.10
2023-06-10T00:41:41.245Z,8.00
2023-06-10T00:44:07.725Z,6.15
2023-06-10T00:46:35.038Z,9.15
2023-06-10T00:49:02.078Z,8.60
2023-06-10T00:51:28.787Z,7.28
2023-06-10T00:53:55.821Z,6.68
2023-06-10T00:56:23.192Z,6.70
2023-06-10T00:58:49.691Z,6.60
2023-06-10T01:01:16.436Z,7.68
2023-06-10T01:03:43.039Z,8.77
2023-06-10T01:06:10.842Z,7.88
2023-06-10T01:08:55.445Z,7.38
2023-06-10T01:11:30.738Z,5.97
2023-06-10T01:13:59.191Z,6.95
2023-06-10T01:16:26.563Z,10.13
2023-06-10T01:18:53.544Z,7.32
2023-06-10T01:21:25.745Z,6.95
2023-06-10T01:23:56.539Z,10.70
2023-06-10T01:26:31.096Z,13.38
2023-06-10T01:29:09.591Z,7.82
2023-06-10T01:31:54.270Z,8.40
2023-06-10T01:34:24.537Z,9.00
2023-06-10T01:36:51.784Z,10.23
2023-06-10T01:39:21.654Z,7.57
2023-06-10T01:41:49.835Z,7.82
2023-06-10T01:44:20.752Z,9.93
2023-06-10T01:46:47.654Z,8.82
2023-06-10T01:49:14.611Z,9.77
2023-06-10T01:51:41.334Z,9.63
2023-06-10T01:54:07.892Z,9.25
2023-06-10T01:56:34.677Z,7.03
2023-06-10T01:59:01.258Z,7.45
2023-06-10T02:01:27.760Z,8.02
2023-06-10T02:03:54.495Z,7.85
2023-06-10T02:06:21.226Z,8.35
2023-06-10T02:08:47.651Z,8.77
2023-06-10T02:11:14.187Z,9.43
2023-06-10T02:13:40.892Z,7.53
2023-06-10T02:16:07.475Z,9.70
2023-06-10T02:18:34.719Z,8.27
2023-06-10T02:21:01.188Z,7.18
2023-06-10T02:23:27.603Z,10.73
2023-06-10T02:25:54.059Z,9.23
2023-06-10T02:28:20.679Z,10.32
2023-06-10T02:30:47.942Z,8.40
2023-06-10T02:33:15.137Z,8.93
2023-06-10T02:35:42.074Z,10.85
2023-06-10T02:38:08.612Z,7.82
2023-06-10T02:40:35.044Z,9.70
2023-06-10T02:43:01.518Z,9.50
2023-06-10T02:45:27.962Z,11.23
2023-06-10T02:47:54.413Z,8.90
2023-06-10T02:50:21.051Z,12.43
2023-06-10T02:52:47.581Z,7.93
2023-06-10T02:55:14.035Z,8.48
2023-06-10T02:57:40.843Z,9.35
2023-06-10T03:00:11.948Z,10.18
2023-06-10T03:02:39.899Z,8.05
2023-06-10T03:05:11.301Z,7.38
2023-06-10T03:07:38.219Z,11.57
2023-06-10T03:10:05.139Z,8.02
2023-06-10T03:12:31.595Z,9.32
2023-06-10T03:14:58.039Z,7.95
2023-06-10T03:17:24.846Z,8.60
2023-06-10T03:19:51.295Z,9.75
2023-06-10T03:22:18.038Z,10.48
2023-06-10T03:24:44.747Z,10.50
2023-06-10T03:27:12.001Z,10.82
2023-06-10T03:29:38.685Z,9.65
2023-06-10T03:32:05.663Z,7.60
2023-06-10T03:34:32.150Z,8.88
2023-06-10T03:36:59.049Z,8.63
2023-06-10T03:39:25.550Z,8.57
2023-06-10T03:41:52.321Z,10.55
2023-06-10T03:44:19.127Z,10.57
2023-06-10T03:46:46.579Z,8.98
2023-06-10T03:49:14.650Z,9.93
2023-06-10T03:51:41.114Z,10.10
2023-06-10T03:54:07.648Z,11.15
2023-06-10T03:56:34.089Z,17.52
2023-06-10T03:59:01.226Z,15.52
2023-06-10T04:01:28.612Z,47.92
2023-06-10T04:03:55.439Z,121.82
2023-06-10T04:06:23.721Z,195.45
2023-06-10T04:08:50.199Z,214.60
2023-06-10T04:11:16.699Z,161.23
2023-06-10T04:13:43.123Z,86.35
2023-06-10T04:16:09.580Z,85.55
2023-06-10T04:18:37.213Z,97.60
2023-06-10T04:21:03.882Z,190.05
2023-06-10T04:23:30.364Z,218.13
2023-06-10T04:25:56.756Z,157.30
2023-06-10T04:28:23.146Z,154.65
2023-06-10T04:30:49.659Z,118.78
2023-06-10T04:33:16.061Z,74.07
2023-06-10T04:35:43.322Z,44.78
2023-06-10T04:38:09.982Z,36.60
2023-06-10T04:40:36.491Z,35.58
2023-06-10T04:43:02.948Z,30.25
2023-06-10T04:45:30.792Z,19.70
2023-06-10T04:47:59.180Z,14.15
2023-06-10T04:50:25.954Z,12.93
2023-06-10T04:52:52.366Z,10.75
2023-06-10T04:55:18.917Z,10.32
2023-06-10T04:57:45.357Z,10.57
2023-06-10T05:00:12.252Z,8.93
2023-06-10T05:02:38.731Z,10.23
2023-06-10T05:05:05.326Z,9.75
2023-06-10T05:07:31.758Z,13.23
2023-06-10T05:09:58.237Z,9.45
2023-06-10T05:12:24.653Z,10.88
2023-06-10T05:14:51.289Z,11.27
2023-06-10T05:17:17.736Z,10.25
2023-06-10T05:19:44.716Z,9.85
2023-06-10T05:22:11.441Z,8.55
2023-06-10T05:24:38.015Z,14.85
2023-06-10T05:27:04.775Z,10.70
2023-06-10T05:29:31.395Z,7.68
2023-06-10T05:31:58.804Z,9.45
2023-06-10T05:34:25.403Z,8.77
2023-06-10T05:36:52.071Z,9.07
2023-06-10T05:39:18.548Z,8.63
2023-06-10T05:41:45.259Z,9.07
2023-06-10T05:44:14.210Z,11.35
2023-06-10T05:46:40.927Z,10.95
2023-06-10T05:49:07.464Z,8.60
2023-06-10T05:51:33.907Z,9.75
2023-06-10T05:54:00.479Z,9.73
2023-06-10T05:56:26.956Z,8.50
2023-06-10T05:58:53.466Z,8.45
2023-06-10T06:01:20.049Z,9.73
2023-06-10T06:03:46.771Z,13.60
2023-06-10T06:06:13.409Z,22.55
2023-06-10T06:08:39.833Z,23.20
2023-06-10T06:11:06.350Z,133.98
2023-06-10T06:13:32.861Z,63.38
2023-06-10T06:15:59.408Z,28.45
2023-06-10T06:18:26.030Z,234.88
2023-06-10T06:20:52.460Z,201.38
2023-06-10T06:23:18.913Z,36.97
2023-06-10T06:25:45.431Z,11.07
2023-06-10T06:28:11.971Z,37.17
2023-06-10T06:30:38.439Z,7.38
2023-06-10T06:33:04.982Z,8.60
2023-06-10T06:35:33.169Z,9.20
2023-06-10T06:37:59.949Z,10.57
2023-06-10T06:40:26.760Z,11.98
2023-06-10T06:42:53.240Z,6.60
2023-06-10T06:45:19.663Z,8.40
2023-06-10T06:47:46.143Z,7.90
2023-06-10T06:50:12.679Z,6.80
2023-06-10T06:52:39.375Z,8.70
2023-06-10T06:55:06.499Z,8.50
2023-06-10T06:57:33.131Z,8.45
2023-06-10T06:59:59.703Z,6.95
2023-06-10T07:02:26.230Z,7.70
2023-06-10T07:04:56.399Z,8.13
2023-06-10T07:07:23.148Z,8.82
2023-06-10T07:09:49.623Z,7.28
2023-06-10T07:12:16.110Z,8.77
2023-06-10T07:14:42.734Z,8.23
2023-06-10T07:17:09.580Z,6.90
2023-06-10T07:19:36.193Z,11.70
2023-06-10T07:22:02.772Z,6.47
2023-06-10T07:24:29.213Z,9.27
2023-06-10T07:26:55.716Z,10.23
2023-06-10T07:29:22.289Z,8.23
2023-06-10T07:31:48.711Z,9.02
2023-06-10T07:34:15.191Z,12.18
2023-06-10T07:36:41.607Z,6.90
2023-06-10T07:39:08.847Z,7.38
2023-06-10T07:41:35.357Z,10.32
2023-06-10T07:44:01.835Z,7.68
2023-06-10T07:46:29.255Z,12.60
2023-06-10T07:48:55.935Z,7.85
2023-06-10T07:51:22.826Z,8.57
2023-06-10T07:53:49.315Z,7.43
2023-06-10T07:56:15.874Z,11.55
2023-06-10T07:58:42.347Z,7.20
2023-06-10T08:01:09.710Z,8.95
2023-06-10T08:03:36.183Z,10.02
2023-06-10T08:06:03.064Z,8.55
2023-06-10T08:08:29.564Z,9.25
2023-06-10T08:10:56.118Z,9.80
2023-06-10T08:13:22.550Z,8.80
2023-06-10T08:15:51.510Z,7.05
2023-06-10T08:18:18.164Z,7.47
2023-06-10T08:20:44.777Z,8.38
2023-06-10T08:23:11.224Z,6.85
2023-06-10T08:25:37.670Z,9.63
2023-06-10T08:28:04.115Z,16.27
2023-06-10T08:30:31.316Z,9.43
2023-06-10T08:32:57.838Z,6.78
2023-06-10T08:35:24.674Z,7.90
2023-06-10T08:37:51.157Z,8.25
2023-06-10T08:40:17.774Z,7.35
2023-06-10T08:42:49.916Z,10.45
2023-06-10T08:45:19.845Z,12.95
2023-06-10T08:47:47.843Z,8.27
2023-06-10T08:50:16.140Z,7.20
2023-06-10T08:52:44.767Z,6.75
2023-06-10T08:55:12.439Z,7.85
2023-06-10T08:57:39.289Z,12.68
2023-06-10T09:00:06.788Z,7.50
2023-06-10T09:02:36.387Z,7.32
2023-06-10T09:05:03.958Z,5.90
2023-06-10T09:07:32.576Z,8.80
2023-06-10T09:10:00.827Z,7.47
2023-06-10T09:12:27.264Z,7.40
2023-06-10T09:14:53.713Z,6.72
2023-06-10T09:17:20.351Z,8.32
2023-06-10T09:19:48.730Z,10.82
2023-06-10T09:22:15.466Z,9.50
2023-06-10T09:24:42.422Z,6.55
2023-06-10T09:27:09.896Z,9.27
2023-06-10T09:29:48.307Z,8.98
2023-06-10T09:32:15.574Z,8.30
2023-06-10T09:34:42.565Z,7.43
2023-06-10T09:37:13.040Z,8.60
2023-06-10T09:39:39.652Z,6.57
2023-06-10T09:42:26.633Z,7.07
2023-06-10T09:44:53.878Z,5.93
2023-06-10T09:47:23.789Z,6.25
2023-06-10T09:49:51.678Z,10.13
2023-06-10T09:52:28.992Z,8.75
2023-06-10T09:55:00.580Z,6.80
2023-06-10T09:57:30.734Z,6.90
2023-06-10T09:59:57.171Z,6.88
2023-06-10T10:02:23.636Z,7.32
2023-06-10T10:04:50.283Z,7.35
2023-06-10T10:07:16.846Z,7.63
2023-06-10T10:09:43.793Z,7.35
2023-06-10T10:12:12.311Z,6.95
2023-06-10T10:14:39.908Z,7.45
2023-06-10T10:17:14.687Z,7.22
2023-06-10T10:19:48.355Z,8.52
2023-06-10T10:22:42.111Z,10.32
2023-06-10T10:25:13.315Z,5.63
2023-06-10T10:27:40.143Z,7.78
2023-06-10T10:30:10.987Z,5.85
2023-06-10T10:32:49.981Z,6.82
2023-06-10T10:35:19.305Z,10.48
2023-06-10T10:37:47.599Z,9.88
2023-06-10T10:40:15.648Z,7.15
2023-06-10T10:42:42.804Z,8.32
2023-06-10T10:45:11.055Z,8.10
2023-06-10T10:47:39.624Z,6.80
2023-06-10T10:50:29.450Z,6.88
2023-06-10T10:53:00.320Z,8.07
2023-06-10T10:55:27.673Z,9.88
2023-06-10T10:58:08.404Z,8.20
2023-06-10T11:00:44.394Z,6.85
2023-06-10T11:03:17.292Z,8.85
2023-06-10T11:05:49.048Z,5.65
2023-06-10T11:08:36.111Z,7.90
2023-06-10T11:11:19.698Z,8.13
2023-06-10T11:14:07.933Z,7.93
2023-06-10T11:16:44.826Z,9.30
2023-06-10T11:19:32.686Z,7.82
2023-06-10T11:22:01.005Z,6.40
2023-06-10T11:24:27.748Z,6.78
2023-06-10T11:26:54.275Z,9.15
2023-06-10T11:29:21.679Z,6.72
2023-06-10T11:31:52.628Z,6.45
2023-06-10T11:34:24.696Z,8.57
2023-06-10T11:36:52.524Z,12.25
2023-06-10T11:39:21.080Z,6.10
2023-06-10T11:41:47.801Z,5.32
2023-06-10T11:44:18.222Z,7.85
2023-06-10T11:46:46.734Z,6.28
2023-06-10T11:49:13.377Z,8.40
2023-06-10T11:51:42.555Z,8.95
2023-06-10T11:54:12.046Z,8.38
2023-06-10T11:56:38.458Z,7.00
2023-06-10T11:59:08.360Z,6.43
2023-06-10T12:01:43.166Z,6.32
2023-06-10T12:04:16.667Z,9.75
2023-06-10T12:06:50.158Z,9.20
2023-06-10T12:09:30.551Z,7.82
2023-06-10T12:12:02.872Z,6.45
2023-06-10T12:14:51.073Z,9.13
2023-06-10T12:17:17.738Z,9.27
2023-06-10T12:19:44.327Z,7.82
2023-06-10T12:22:10.774Z,11.40
2023-06-10T12:24:45.818Z,7.65
2023-06-10T12:27:13.251Z,7.55
2023-06-10T12:29:39.702Z,5.82
2023-06-10T12:32:08.443Z,7.90
2023-06-10T12:34:37.630Z,7.13
2023-06-10T12:37:06.918Z,11.23
2023-06-10T12:39:36.426Z,8.45
2023-06-10T12:42:04.278Z,8.30
2023-06-10T12:44:35.397Z,7.65
2023-06-10T12:47:08.084Z,7.68
2023-06-10T12:49:34.540Z,6.60
2023-06-10T12:52:01.146Z,7.10
2023-06-10T12:54:27.729Z,7.65
2023-06-10T12:56:54.185Z,6.25
2023-06-10T12:59:20.709Z,7.13
2023-06-10T13:01:53.524Z,7.20
2023-06-10T13:04:20.603Z,7.82
2023-06-10T13:06:48.341Z,7.20
2023-06-10T13:09:15.026Z,8.23
2023-06-10T13:11:41.848Z,6.50
2023-06-10T13:14:08.277Z,6.72
2023-06-10T13:16:34.765Z,7.88
2023-06-10T13:19:03.705Z,6.25
2023-06-10T13:21:30.177Z,6.22
2023-06-10T13:23:56.763Z,5.95
2023-06-10T13:26:23.455Z,7.18
2023-06-10T13:28:49.874Z,6.70
2023-06-10T13:31:16.685Z,8.55
2023-06-10T13:33:44.703Z,7.68
2023-06-10T13:36:11.849Z,8.32
2023-06-10T13:38:38.292Z,5.95
2023-06-10T13:41:05.134Z,9.60
2023-06-10T13:43:31.691Z,7.05
2023-06-10T13:45:58.087Z,6.20
2023-06-10T13:48:24.619Z,5.20
2023-06-10T13:50:51.168Z,9.18
2023-06-10T13:53:17.732Z,6.43
2023-06-10T13:55:44.234Z,10.70
2023-06-10T13:58:10.692Z,7.18
2023-06-10T14:00:37.091Z,6.85
2023-06-10T14:03:04.685Z,7.45
2023-06-10T14:05:32.287Z,7.03
2023-06-10T14:07:58.851Z,7.63
2023-06-10T14:10:25.451Z,6.00
2023-06-10T14:12:52.441Z,6.50
2023-06-10T14:15:19.041Z,7.22
2023-06-10T14:17:45.608Z,6.60
2023-06-10T14:20:12.817Z,8.00
2023-06-10T14:22:39.270Z,8.10
2023-06-10T14:25:06.519Z,7.10
2023-06-10T14:27:33.126Z,6.97
2023-06-10T14:29:59.805Z,8.98
2023-06-10T14:32:26.383Z,8.45
2023-06-10T14:34:52.861Z,6.72
2023-06-10T14:37:19.412Z,11.38
2023-06-10T14:39:45.922Z,11.95
2023-06-10T14:42:12.445Z,7.00
2023-06-10T14:44:38.836Z,6.35
2023-06-10T14:47:05.666Z,8.13
2023-06-10T14:49:32.138Z,5.78
2023-06-10T14:51:58.584Z,6.05
2023-06-10T14:54:25.001Z,7.53
2023-06-10T14:56:51.464Z,6.25
2023-06-10T14:59:20.992Z,7.75
2023-06-10T15:01:48.111Z,7.07
2023-06-10T15:04:14.832Z,8.52
2023-06-10T15:06:42.530Z,7.18
2023-06-10T15:09:09.086Z,9.85
2023-06-10T15:11:35.656Z,7.28
2023-06-10T15:14:02.044Z,7.75
2023-06-10T15:16:28.564Z,8.15
2023-06-10T15:18:55.028Z,7.20
2023-06-10T15:21:21.424Z,14.15
2023-06-10T15:23:48.558Z,6.00
2023-06-10T15:26:15.209Z,7.75
2023-06-10T15:28:41.668Z,12.40
2023-06-10T15:31:09.161Z,7.38
2023-06-10T15:33:35.684Z,11.57
2023-06-10T15:36:02.523Z,7.38
2023-06-10T15:38:28.992Z,6.05
2023-06-10T15:40:56.679Z,7.50
2023-06-10T15:43:23.171Z,7.80
2023-06-10T15:45:49.678Z,5.20
2023-06-10T15:48:16.254Z,7.30
2023-06-10T15:50:42.793Z,7.78
2023-06-10T15:53:09.308Z,5.22
2023-06-10T15:55:35.787Z,5.90
2023-06-10T15:58:04.778Z,6.40
2023-06-10T16:00:31.294Z,6.90
2023-06-10T16:02:57.818Z,7.30
2023-06-10T16:05:24.379Z,5.53
2023-06-10T16:07:50.807Z,7.47
2023-06-10T16:10:17.292Z,7.35
2023-06-10T16:12:43.823Z,5.35
2023-06-10T16:15:11.180Z,5.65
2023-06-10T16:17:38.996Z,7.30
2023-06-10T16:20:06.621Z,8.23
2023-06-10T16:22:33.475Z,9.77
2023-06-10T16:24:59.917Z,5.50
2023-06-10T16:27:26.721Z,7.32
2023-06-10T16:29:56.274Z,9.90
2023-06-10T16:32:22.746Z,7.53
2023-06-10T16:34:49.235Z,5.60
2023-06-10T16:37:16.078Z,6.65
2023-06-10T16:39:42.507Z,8.82
2023-06-10T16:42:09.026Z,6.63
2023-06-10T16:44:35.464Z,5.65
2023-06-10T16:47:01.963Z,6.75
2023-06-10T16:49:28.375Z,7.93
2023-06-10T16:51:54.787Z,7.00
2023-06-10T16:54:21.197Z,9.27
2023-06-10T16:56:47.728Z,15.32
2023-06-10T16:59:14.258Z,15.30
2023-06-10T17:01:40.885Z,15.88
2023-06-10T17:04:07.429Z,9.93
2023-06-10T17:06:34.025Z,9.77
2023-06-10T17:09:00.482Z,5.70
2023-06-10T17:11:27.032Z,6.55
2023-06-10T17:13:53.624Z,7.43
2023-06-10T17:16:20.135Z,10.65
2023-06-10T17:18:46.803Z,6.30
2023-06-10T17:21:13.313Z,6.93
2023-06-10T17:23:39.779Z,5.65
2023-06-10T17:26:06.226Z,5.90
2023-06-10T17:28:32.733Z,6.05
2023-06-10T17:30:59.224Z,8.43
2023-06-10T17:33:25.879Z,8.18
2023-06-10T17:35:52.456Z,5.03
2023-06-10T17:38:21.027Z,9.40
2023-06-10T17:40:47.576Z,10.00
2023-06-10T17:43:14.055Z,9.80
2023-06-10T17:45:40.606Z,9.15
2023-06-10T17:48:07.158Z,7.88
2023-06-10T17:50:33.751Z,7.80
2023-06-10T17:53:00.310Z,11.40
2023-06-10T17:55:26.722Z,8.93
2023-06-10T17:57:53.228Z,6.93
2023-06-10T18:00:20.021Z,11.13
2023-06-10T18:02:46.509Z,5.80
2023-06-10T18:05:13.394Z,6.38
2023-06-10T18:07:40.139Z,5.88
2023-06-10T18:10:07.072Z,8.68
2023-06-10T18:12:33.697Z,6.65
2023-06-10T18:15:00.174Z,5.28
2023-06-10T18:17:26.724Z,7.70
2023-06-10T18:19:53.182Z,5.85
2023-06-10T18:22:19.880Z,7.28
2023-06-10T18:24:46.330Z,7.55
2023-06-10T18:27:16.396Z,6.75
2023-06-10T18:29:43.523Z,6.28
2023-06-10T18:32:10.632Z,6.10
2023-06-10T18:34:37.388Z,7.22
2023-06-10T18:37:04.552Z,6.32
2023-06-10T18:39:31.082Z,5.88
2023-06-10T18:41:57.536Z,6.88
2023-06-10T18:44:24.004Z,7.55
2023-06-10T18:46:50.588Z,5.65
2023-06-10T18:49:16.979Z,8.82
2023-06-10T18:51:43.427Z,12.95
2023-06-10T18:54:09.934Z,8.32
2023-06-10T18:56:36.532Z,7.50
2023-06-10T18:59:03.097Z,9.30
2023-06-10T19:01:29.763Z,8.13
2023-06-10T19:03:56.805Z,7.80
2023-06-10T19:06:23.621Z,8.90
2023-06-10T19:08:50.109Z,7.95
2023-06-10T19:11:17.306Z,8.02
2023-06-10T19:13:43.861Z,9.77
2023-06-10T19:16:10.586Z,7.55
2023-06-10T19:18:37.314Z,9.60
2023-06-10T19:21:06.997Z,7.05
2023-06-10T19:23:34.736Z,6.95
2023-06-10T19:26:01.666Z,8.45
2023-06-10T19:28:28.185Z,7.43
2023-06-10T19:30:54.619Z,9.95
2023-06-10T19:33:21.150Z,6.18
2023-06-10T19:35:47.654Z,10.32
2023-06-10T19:38:14.088Z,11.38
2023-06-10T19:40:40.595Z,7.18
2023-06-10T19:43:07.334Z,8.60
2023-06-10T19:45:33.738Z,6.55
2023-06-10T19:48:00.274Z,8.60
2023-06-10T19:50:26.788Z,6.13
2023-06-10T19:52:53.258Z,9.38
2023-06-10T19:55:19.738Z,9.07
2023-06-10T19:57:46.242Z,8.70
2023-06-10T20:00:13.039Z,9.90
2023-06-10T20:02:39.661Z,7.40
2023-06-10T20:05:06.400Z,7.68
2023-06-10T20:07:32.821Z,10.25
2023-06-10T20:09:59.309Z,8.10
2023-06-10T20:12:25.827Z,10.55
2023-06-10T20:14:52.257Z,8.93
2023-06-10T20:17:18.652Z,8.35
2023-06-10T20:19:49.090Z,9.35
2023-06-10T20:22:17.096Z,10.63
2023-06-10T20:24:43.590Z,11.18
2023-06-10T20:27:10.955Z,14.00
2023-06-10T20:29:37.580Z,9.27
2023-06-10T20:32:04.221Z,7.30
2023-06-10T20:34:30.727Z,9.43
2023-06-10T20:36:57.882Z,9.05
2023-06-10T20:39:25.896Z,8.05
2023-06-10T20:41:52.443Z,8.85
2023-06-10T20:44:18.835Z,12.05
2023-06-10T20:46:45.419Z,8.55
2023-06-10T20:49:14.324Z,8.65
2023-06-10T20:51:41.893Z,7.43
2023-06-10T20:54:08.309Z,6.95
2023-06-10T20:56:34.678Z,11.75
2023-06-10T20:59:01.409Z,9.32
2023-06-10T21:01:27.899Z,7.30
2023-06-10T21:03:54.601Z,9.55
2023-06-10T21:06:21.952Z,8.00
2023-06-10T21:08:48.584Z,9.07
2023-06-10T21:11:15.041Z,7.90
2023-06-10T21:13:41.613Z,8.27
2023-06-10T21:16:08.165Z,8.43
2023-06-10T21:18:35.806Z,7.00
2023-06-10T21:21:02.337Z,8.07
2023-06-10T21:23:28.772Z,12.38
2023-06-10T21:25:55.226Z,11.57
2023-06-10T21:28:21.748Z,6.18
2023-06-10T21:30:48.130Z,8.77
2023-06-10T21:33:14.557Z,7.30
2023-06-10T21:35:41.265Z,7.95
2023-06-10T21:38:07.749Z,9.02
2023-06-10T21:40:34.145Z,9.20
2023-06-10T21:43:00.648Z,9.13
2023-06-10T21:45:27.089Z,6.40
2023-06-10T21:47:53.610Z,5.63
2023-06-10T21:50:20.125Z,7.72
2023-06-10T21:52:46.552Z,7.00
2023-06-10T21:55:13.192Z,6.95
2023-06-10T21:57:39.997Z,8.45
2023-06-10T22:00:12.691Z,8.38
2023-06-10T22:02:40.500Z,7.15
2023-06-10T22:05:08.697Z,7.70
2023-06-10T22:07:36.172Z,9.52
2023-06-10T22:10:04.443Z,9.00
2023-06-10T22:12:31.306Z,12.60
2023-06-10T22:14:57.804Z,7.07
2023-06-10T22:17:24.322Z,7.50
2023-06-10T22:19:50.900Z,7.68
2023-06-10T22:22:18.462Z,10.07
2023-06-10T22:24:50.549Z,7.70
2023-06-10T22:27:17.132Z,7.72
2023-06-10T22:29:43.562Z,6.30
2023-06-10T22:32:10.063Z,7.00
2023-06-10T22:34:36.532Z,7.75
2023-06-10T22:37:03.017Z,7.30
2023-06-10T22:39:29.434Z,10.70
2023-06-10T22:41:55.953Z,6.10
2023-06-10T22:44:22.607Z,6.60
2023-06-10T22:46:49.121Z,10.05
2023-06-10T22:49:16.478Z,8.50
2023-06-10T22:51:44.285Z,9.10
2023-06-10T22:54:11.031Z,7.40
2023-06-10T22:56:37.479Z,7.20
2023-06-10T22:59:03.935Z,7.28
2023-06-10T23:01:30.997Z,6.90
2023-06-10T23:03:58.309Z,7.72
2023-06-10T23:06:24.996Z,7.22
2023-06-10T23:08:51.433Z,8.15
2023-06-10T23:11:17.812Z,10.48
2023-06-10T23:13:44.357Z,6.15
2023-06-10T23:16:10.886Z,10.40
2023-06-10T23:18:37.616Z,6.60
2023-06-10T23:21:04.238Z,13.90
2023-06-10T23:23:34.868Z,7.35
2023-06-10T23:26:02.403Z,6.43
2023-06-10T23:28:28.876Z,6.20
2023-06-10T23:30:55.978Z,12.57
2023-06-10T23:33:23.584Z,11.55
2023-06-10T23:35:50.339Z,7.60
2023-06-10T23:38:16.872Z,7.18
2023-06-10T23:40:43.323Z,7.95
2023-06-10T23:43:11.319Z,9.88
2023-06-10T23:45:37.818Z,9.02
2023-06-10T23:48:04.927Z,12.13
2023-06-10T23:50:31.642Z,9.85
2023-06-10T23:52:58.075Z,7.53
2023-06-10T23:55:25.395Z,8.68
2023-06-10T23:57:51.999Z,10.48
